Time;durP1;ratioP1;P1;durP2;ratioP2;P2;SDS_P1;SDS_P2;PMS_P1;PMS_P2;Temp;Humidity;BMP_temperature;BMP_pressure;BME280_temperature;BME280_humidity;BME280_pressure;Samples;Min_cycle;Max_cycle;Signal;HPM_P1;HPM_P2
2023/06/12 00:02:06;;;;;;;4.15;2.80;;;;;;;;;;6220642;28;20046;-80
2023/06/12 00:05:10;;;;;;;3.42;2.60;;;;;;;;;;6216733;28;20046;-81
2023/06/12 00:08:13;;;;;;;3.63;2.83;;;;;;;;;;6221745;28;20072;-80
2023/06/12 00:11:16;;;;;;;3.92;2.90;;;;;;;;;;6224016;28;20046;-79
2023/06/12 00:14:18;;;;;;;3.07;2.77;;;;;;;;;;6218673;28;20053;-80
2023/06/12 00:17:19;;;;;;;2.95;2.53;;;;;;;;;;6220451;28;20054;-79
2023/06/12 00:20:22;;;;;;;3.90;2.65;;;;;;;;;;6216801;28;20058;-80
2023/06/12 00:23:24;;;;;;;4.80;2.92;;;;;;;;;;6219798;28;20117;-80
2023/06/12 00:26:26;;;;;;;3.28;2.67;;;;;;;;;;6218594;28;20066;-79
2023/06/12 00:29:28;;;;;;;4.57;2.63;;;;;;;;;;6215519;28;22107;-78
2023/06/12 00:32:29;;;;;;;8.10;2.42;;;;;;;;;;6217749;28;20092;-80
2023/06/12 00:35:32;;;;;;;2.08;1.67;;;;;;;;;;6214039;28;20042;-80
2023/06/12 00:38:34;;;;;;;3.38;1.80;;;;;;;;;;6218593;28;20093;-81
2023/06/12 00:41:36;;;;;;;2.55;1.52;;;;;;;;;;6216597;28;20137;-81
2023/06/12 00:44:37;;;;;;;2.10;1.90;;;;;;;;;;6215118;28;20061;-80
2023/06/12 00:47:39;;;;;;;3.08;1.92;;;;;;;;;;6219095;28;20093;-81
2023/06/12 00:50:44;;;;;;;3.13;2.20;;;;;;;;;;6217992;28;20060;-80
2023/06/12 00:53:46;;;;;;;3.22;2.10;;;;;;;;;;6215745;28;20073;-79
2023/06/12 00:56:48;;;;;;;3.97;2.33;;;;;;;;;;6218086;28;20056;-79
2023/06/12 00:59:51;;;;;;;3.97;2.50;;;;;;;;;;6216501;28;20054;-79
2023/06/12 01:02:54;;;;;;;3.28;2.60;;;;;;;;;;6217647;28;20065;-79
2023/06/12 01:05:57;;;;;;;;;;;;;;;;;;6219220;28;20096;-80
2023/06/12 01:09:04;;;;;;;3.25;2.47;;;;;;;;;;6218858;28;19925;-79
2023/06/12 01:12:08;;;;;;;3.53;2.78;;;;;;;;;;6216032;28;20121;-80
2023/06/12 01:15:10;;;;;;;4.57;3.60;;;;;;;;;;6219413;28;20310;-79
2023/06/12 01:18:12;;;;;;;4.13;2.78;;;;;;;;;;6217506;28;20215;-80
2023/06/12 01:21:17;;;;;;;4.30;2.90;;;;;;;;;;6215156;28;20072;-79
2023/06/12 01:24:31;;;;;;;3.35;2.58;;;;;;;;;;6215523;28;20364;-79
2023/06/12 01:27:48;;;;;;;3.20;2.30;;;;;;;;;;6216544;28;20073;-80
2023/06/12 01:30:57;;;;;;;3.88;2.65;;;;;;;;;;6213152;28;20064;-79
2023/06/12 01:34:03;;;;;;;6.65;2.80;;;;;;;;;;6218490;28;20097;-80
2023/06/12 01:37:13;;;;;;;4.10;2.63;;;;;;;;;;6220184;28;20051;-79
2023/06/12 01:40:16;;;;;;;4.50;3.50;;;;;;;;;;6216920;28;20780;-79
2023/06/12 01:43:18;;;;;;;;;;;;;;;;;;6215323;28;20234;-79
2023/06/12 01:46:20;;;;;;;4.70;2.92;;;;;;;;;;6218847;28;19921;-79
2023/06/12 01:49:23;;;;;;;4.70;3.13;;;;;;;;;;6217345;28;20238;-79
2023/06/12 01:52:24;;;;;;;3.15;2.70;;;;;;;;;;6214170;28;20423;-79
2023/06/12 01:55:27;;;;;;;3.50;2.80;;;;;;;;;;6216754;28;20095;-79
2023/06/12 01:58:29;;;;;;;3.65;2.88;;;;;;;;;;6215832;28;20046;-80
2023/06/12 02:01:31;;;;;;;3.28;2.78;;;;;;;;;;6215748;28;20053;-80
2023/06/12 02:04:34;;;;;;;4.45;2.85;;;;;;;;;;6215244;28;20058;-80
2023/06/12 02:07:36;;;;;;;3.20;2.63;;;;;;;;;;6217619;28;20053;-80
2023/06/12 02:10:37;;;;;;;5.32;3.17;;;;;;;;;;6211514;28;20101;-80
2023/06/12 02:13:39;;;;;;;2.83;2.38;;;;;;;;;;6215181;28;20092;-79
2023/06/12 02:16:40;;;;;;;4.20;2.50;;;;;;;;;;6219491;28;20338;-79
2023/06/12 02:19:44;;;;;;;4.00;2.60;;;;;;;;;;6216315;28;20101;-80
2023/06/12 02:22:45;;;;;;;3.40;2.22;;;;;;;;;;6215078;28;20233;-79
2023/06/12 02:25:47;;;;;;;3.78;2.45;;;;;;;;;;6216329;28;20065;-80
2023/06/12 02:29:06;;;;;;;2.30;2.10;;;;;;;;;;6217097;28;20057;-79
2023/06/12 02:32:08;;;;;;;2.75;2.20;;;;;;;;;;6221775;28;20050;-79
2023/06/12 02:35:11;;;;;;;2.20;1.92;;;;;;;;;;6221560;28;20049;-80
2023/06/12 02:38:13;;;;;;;2.95;2.33;;;;;;;;;;6222540;28;20057;-79
2023/06/12 02:41:14;;;;;;;2.85;2.45;;;;;;;;;;6222472;28;20066;-80
2023/06/12 02:44:16;;;;;;;2.85;2.22;;;;;;;;;;6220086;28;20238;-79
2023/06/12 02:47:18;;;;;;;3.00;2.28;;;;;;;;;;6223695;28;20045;-80
2023/06/12 02:50:21;;;;;;;3.35;2.13;;;;;;;;;;6220325;28;20061;-80
2023/06/12 02:53:23;;;;;;;3.30;2.60;;;;;;;;;;6217845;28;20050;-79
2023/06/12 02:56:26;;;;;;;4.35;2.50;;;;;;;;;;6217563;28;20334;-79
2023/06/12 02:59:27;;;;;;;2.15;1.80;;;;;;;;;;6218585;28;20050;-79
2023/06/12 03:02:29;;;;;;;3.00;2.05;;;;;;;;;;6214928;28;20054;-79
2023/06/12 03:05:36;;;;;;;3.80;2.10;;;;;;;;;;6218795;28;20072;-79
2023/06/12 03:08:37;;;;;;;3.17;1.80;;;;;;;;;;6212223;28;20058;-79
2023/06/12 03:11:39;;;;;;;2.25;1.98;;;;;;;;;;6214495;28;20046;-79
2023/06/12 03:14:42;;;;;;;2.53;2.00;;;;;;;;;;6214488;28;20054;-79
2023/06/12 03:17:44;;;;;;;2.63;2.15;;;;;;;;;;6213848;28;20054;-79
2023/06/12 03:20:47;;;;;;;2.72;1.90;;;;;;;;;;6214603;28;20065;-79
2023/06/12 03:23:48;;;;;;;5.85;2.15;;;;;;;;;;6214276;28;20053;-79
2023/06/12 03:26:50;;;;;;;2.30;2.10;;;;;;;;;;6214082;28;20061;-79
2023/06/12 03:29:52;;;;;;;2.40;2.00;;;;;;;;;;6213776;28;20065;-79
2023/06/12 03:32:56;;;;;;;2.20;1.80;;;;;;;;;;6216967;28;20278;-79
2023/06/12 03:35:59;;;;;;;2.30;2.00;;;;;;;;;;6215074;28;20329;-79
2023/06/12 03:39:01;;;;;;;3.40;2.05;;;;;;;;;;6216831;28;20542;-79
2023/06/12 03:42:02;;;;;;;2.35;1.70;;;;;;;;;;6215466;28;20058;-79
2023/06/12 03:45:05;;;;;;;1.92;1.67;;;;;;;;;;6216094;28;20270;-79
2023/06/12 03:48:07;;;;;;;2.80;1.95;;;;;;;;;;6215478;28;20054;-79
2023/06/12 03:51:10;;;;;;;3.10;2.42;;;;;;;;;;6214300;28;20089;-79
2023/06/12 03:54:11;;;;;;;3.53;2.17;;;;;;;;;;6215218;28;20054;-79
2023/06/12 03:57:13;;;;;;;4.90;2.13;;;;;;;;;;6216287;28;20077;-78
2023/06/12 04:00:16;;;;;;;2.38;2.08;;;;;;;;;;6217239;28;20050;-79
2023/06/12 04:03:18;;;;;;;3.90;2.43;;;;;;;;;;6218010;28;20069;-79
2023/06/12 04:06:22;;;;;;;3.65;2.13;;;;;;;;;;6220989;28;20484;-79
2023/06/12 04:09:24;;;;;;;4.60;2.40;;;;;;;;;;6220344;28;20057;-79
2023/06/12 04:12:26;;;;;;;4.00;2.85;;;;;;;;;;6218289;28;20207;-78
2023/06/12 04:15:30;;;;;;;3.47;2.63;;;;;;;;;;6217811;28;20054;-79
2023/06/12 04:18:32;;;;;;;;;;;;;;;;;;6220245;28;20050;-79
2023/06/12 04:21:35;;;;;;;5.70;2.83;;;;;;;;;;6217491;28;19957;-79
2023/06/12 04:24:38;;;;;;;4.13;2.95;;;;;;;;;;6216828;28;20057;-79
2023/06/12 04:27:42;;;;;;;7.22;2.75;;;;;;;;;;6220460;28;20078;-79
2023/06/12 04:30:44;;;;;;;3.25;2.72;;;;;;;;;;6215409;28;20367;-79
2023/06/12 04:33:46;;;;;;;4.45;2.60;;;;;;;;;;6217058;28;20057;-79
2023/06/12 04:36:52;;;;;;;5.40;3.35;;;;;;;;;;6218196;28;20105;-79
2023/06/12 04:39:54;;;;;;;3.50;2.70;;;;;;;;;;6218966;28;20080;-79
2023/06/12 04:42:59;;;;;;;3.58;2.65;;;;;;;;;;6216468;28;20074;-79
2023/06/12 04:46:01;;;;;;;3.55;3.00;;;;;;;;;;6217290;28;20139;-76
2023/06/12 04:49:03;;;;;;;4.68;2.55;;;;;;;;;;6216856;28;20054;-78
2023/06/12 04:52:06;;;;;;;3.65;2.50;;;;;;;;;;6217676;28;20211;-79
2023/06/12 04:55:09;;;;;;;4.13;2.63;;;;;;;;;;6217038;28;20057;-79
2023/06/12 04:58:12;;;;;;;3.92;2.90;;;;;;;;;;6215516;28;20144;-78
2023/06/12 05:01:14;;;;;;;5.50;2.83;;;;;;;;;;6217152;28;20050;-79
2023/06/12 05:04:16;;;;;;;3.65;2.95;;;;;;;;;;6219090;28;20082;-79
2023/06/12 05:07:19;;;;;;;3.92;2.63;;;;;;;;;;6217983;28;20132;-79
2023/06/12 05:10:21;;;;;;;5.00;2.83;;;;;;;;;;6213886;28;20056;-79
2023/06/12 05:13:22;;;;;;;6.78;3.15;;;;;;;;;;6220227;28;20053;-78
2023/06/12 05:16:24;;;;;;;3.38;2.80;;;;;;;;;;6220135;28;20140;-79
2023/06/12 05:19:26;;;;;;;4.65;2.90;;;;;;;;;;6215459;28;20061;-82
2023/06/12 05:22:29;;;;;;;4.60;2.83;;;;;;;;;;6214426;28;20497;-80
2023/06/12 05:25:31;;;;;;;5.10;3.05;;;;;;;;;;6216801;28;20065;-79
2023/06/12 05:28:33;;;;;;;4.70;3.00;;;;;;;;;;6215263;28;20045;-79
2023/06/12 05:31:34;;;;;;;4.43;2.95;;;;;;;;;;6219184;28;20387;-79
2023/06/12 05:34:36;;;;;;;6.28;3.13;;;;;;;;;;6217750;28;20053;-81
2023/06/12 05:37:39;;;;;;;5.00;3.45;;;;;;;;;;6217479;28;20050;-80
2023/06/12 05:40:41;;;;;;;5.13;3.17;;;;;;;;;;6215174;28;20058;-80
2023/06/12 05:43:44;;;;;;;4.15;2.90;;;;;;;;;;6213691;28;20057;-79
2023/06/12 05:46:48;;;;;;;3.38;2.63;;;;;;;;;;6216212;28;20053;-79
2023/06/12 05:49:50;;;;;;;5.22;2.90;;;;;;;;;;6214908;28;20046;-79
2023/06/12 05:52:53;;;;;;;3.45;2.95;;;;;;;;;;6213919;28;20227;-79
2023/06/12 05:55:54;;;;;;;5.97;3.30;;;;;;;;;;6214128;28;20322;-80
2023/06/12 05:58:56;;;;;;;4.50;3.35;;;;;;;;;;6213141;28;20050;-80
2023/06/12 06:01:58;;;;;;;6.72;3.13;;;;;;;;;;6214079;28;20057;-80
2023/06/12 06:04:59;;;;;;;5.18;3.28;;;;;;;;;;6214316;28;20325;-81
2023/06/12 06:08:02;;;;;;;8.95;3.30;;;;;;;;;;6215432;28;20046;-80
2023/06/12 06:11:04;;;;;;;3.47;3.10;;;;;;;;;;6218365;28;20344;-82
2023/06/12 06:14:06;;;;;;;7.15;3.85;;;;;;;;;;6214531;28;20253;-81
2023/06/12 06:17:07;;;;;;;8.50;3.83;;;;;;;;;;6215178;28;20051;-82
2023/06/12 06:20:11;;;;;;;5.13;3.67;;;;;;;;;;6216383;28;20058;-83
2023/06/12 06:23:14;;;;;;;6.07;3.50;;;;;;;;;;6215811;28;20054;-83
2023/06/12 06:26:15;;;;;;;6.10;3.67;;;;;;;;;;6214520;28;20062;-85
2023/06/12 06:29:17;;;;;;;5.22;2.85;;;;;;;;;;6215543;28;20046;-83
2023/06/12 06:32:19;;;;;;;3.88;3.25;;;;;;;;;;6213888;28;20058;-85
2023/06/12 06:35:21;;;;;;;5.63;3.72;;;;;;;;;;6218453;28;20096;-82
2023/06/12 06:38:24;;;;;;;4.95;3.65;;;;;;;;;;6216864;28;20396;-84
2023/06/12 06:41:26;;;;;;;5.82;3.30;;;;;;;;;;6201109;28;20317;-83
2023/06/12 06:44:28;;;;;;;5.05;3.25;;;;;;;;;;6211519;28;20058;-81
2023/06/12 06:47:30;;;;;;;4.65;3.10;;;;;;;;;;6215885;28;20058;-84
2023/06/12 06:50:31;;;;;;;6.07;3.55;;;;;;;;;;6214172;28;20049;-81
2023/06/12 06:53:34;;;;;;;8.05;3.25;;;;;;;;;;6214037;28;20053;-86
2023/06/12 06:56:36;;;;;;;5.00;3.00;;;;;;;;;;6200680;28;20093;-81
2023/06/12 06:59:38;;;;;;;3.45;2.50;;;;;;;;;;6215756;28;20284;-81
2023/06/12 07:02:42;;;;;;;4.47;2.35;;;;;;;;;;6213942;28;20058;-82
2023/06/12 07:05:44;;;;;;;3.55;2.72;;;;;;;;;;6215199;28;20058;-82
2023/06/12 07:08:47;;;;;;;3.88;2.55;;;;;;;;;;6212352;28;20064;-82
2023/06/12 07:11:49;;;;;;;6.20;2.58;;;;;;;;;;6214488;28;20057;-81
2023/06/12 07:14:51;;;;;;;3.55;2.70;;;;;;;;;;6217256;28;20054;-81
2023/06/12 07:17:53;;;;;;;7.43;2.83;;;;;;;;;;6217117;28;20050;-82
2023/06/12 07:20:54;;;;;;;5.75;2.38;;;;;;;;;;6215544;28;20065;-81
2023/06/12 07:23:57;;;;;;;4.30;2.45;;;;;;;;;;6215530;28;20062;-81
2023/06/12 07:26:59;;;;;;;2.95;2.20;;;;;;;;;;6215147;28;20052;-82
2023/06/12 07:30:01;;;;;;;5.30;2.05;;;;;;;;;;6214477;28;20054;-82
2023/06/12 07:33:03;;;;;;;2.85;1.90;;;;;;;;;;6208915;28;20038;-82
2023/06/12 07:36:05;;;;;;;2.38;1.33;;;;;;;;;;6212249;28;20054;-82
2023/06/12 07:39:08;;;;;;;2.80;1.70;;;;;;;;;;6219778;28;20333;-87
2023/06/12 07:42:10;;;;;;;;;;;;;;;;;;6221150;28;20057;-83
2023/06/12 07:45:12;;;;;;;2.05;1.40;;;;;;;;;;6219208;28;19917;-82
2023/06/12 07:48:13;;;;;;;2.15;1.70;;;;;;;;;;6221000;28;20054;-83
2023/06/12 07:51:16;;;;;;;2.00;1.67;;;;;;;;;;6221506;28;20226;-82
2023/06/12 07:54:19;;;;;;;1.65;1.30;;;;;;;;;;6216696;28;20050;-81
2023/06/12 07:57:21;;;;;;;2.13;1.30;;;;;;;;;;6217959;28;20049;-81
2023/06/12 08:00:24;;;;;;;4.00;1.60;;;;;;;;;;6220453;28;20408;-81
2023/06/12 08:03:26;;;;;;;4.30;1.42;;;;;;;;;;6220433;28;20164;-81
2023/06/12 08:06:29;;;;;;;1.38;1.25;;;;;;;;;;6208583;28;20064;-81
2023/06/12 08:09:32;;;;;;;2.10;1.33;;;;;;;;;;6218328;28;20287;-81
2023/06/12 08:12:34;;;;;;;1.98;1.23;;;;;;;;;;6216775;28;20058;-81
2023/06/12 08:15:36;;;;;;;3.35;1.38;;;;;;;;;;6217954;28;20054;-84
2023/06/12 08:18:38;;;;;;;2.10;1.50;;;;;;;;;;6218368;28;20050;-82
2023/06/12 08:21:40;;;;;;;4.65;1.48;;;;;;;;;;6217766;28;20057;-81
2023/06/12 08:24:44;;;;;;;4.22;1.30;;;;;;;;;;6220617;28;20050;-84
2023/06/12 08:27:45;;;;;;;2.20;1.05;;;;;;;;;;6218256;28;20152;-81
2023/06/12 08:30:47;;;;;;;1.83;1.33;;;;;;;;;;6218349;28;20413;-80
2023/06/12 08:33:49;;;;;;;5.88;2.45;;;;;;;;;;6219688;28;20047;-80
2023/06/12 08:36:51;;;;;;;3.67;2.40;;;;;;;;;;6217240;28;20073;-80
2023/06/12 08:39:55;;;;;;;;;;;;;;;;;;6221186;28;20199;-79
2023/06/12 08:42:59;;;;;;;3.40;1.77;;;;;;;;;;6216917;28;19932;-80
2023/06/12 08:46:04;;;;;;;5.50;1.60;;;;;;;;;;6218108;28;20049;-80
2023/06/12 08:49:06;;;;;;;3.42;1.65;;;;;;;;;;6216691;28;20050;-77
2023/06/12 08:52:09;;;;;;;2.22;1.63;;;;;;;;;;6217324;28;20054;-78
2023/06/12 08:55:14;;;;;;;3.78;1.52;;;;;;;;;;6216973;28;20046;-79
2023/06/12 08:58:16;;;;;;;1.92;1.60;;;;;;;;;;6216254;28;20116;-78
2023/06/12 09:01:18;;;;;;;1.60;1.40;;;;;;;;;;6216494;28;20103;-77
2023/06/12 09:04:26;;;;;;;2.10;1.70;;;;;;;;;;6218365;28;20049;-77
2023/06/12 09:07:29;;;;;;;2.25;1.60;;;;;;;;;;6220726;28;20049;-77
2023/06/12 09:10:32;;;;;;;;;;;;;;;;;;6216011;28;20054;-77
2023/06/12 09:13:41;;;;;;;2.50;1.37;;;;;;;;;;6217013;28;20117;-77
2023/06/12 09:16:46;;;;;;;2.55;1.38;;;;;;;;;;6216301;28;20113;-77
2023/06/12 09:19:49;;;;;;;2.53;1.80;;;;;;;;;;6215154;28;20058;-76
2023/06/12 09:22:51;;;;;;;1.60;1.42;;;;;;;;;;6217370;28;20105;-77
2023/06/12 09:25:55;;;;;;;2.67;1.60;;;;;;;;;;6220110;28;20109;-79
2023/06/12 09:28:57;;;;;;;2.17;1.83;;;;;;;;;;6220234;28;20058;-77
2023/06/12 09:31:59;;;;;;;4.28;1.83;;;;;;;;;;6217723;28;20046;-77
2023/06/12 09:35:02;;;;;;;2.73;1.80;;;;;;;;;;6216626;28;20210;-76
2023/06/12 09:38:04;;;;;;;3.47;1.95;;;;;;;;;;6215807;28;20133;-77
2023/06/12 09:41:08;;;;;;;2.58;1.80;;;;;;;;;;6216298;28;20086;-77
2023/06/12 09:44:09;;;;;;;2.78;1.73;;;;;;;;;;6216869;28;20069;-77
2023/06/12 09:47:12;;;;;;;2.80;1.55;;;;;;;;;;6217009;28;20065;-76
2023/06/12 09:50:15;;;;;;;2.63;1.80;;;;;;;;;;6216132;28;20054;-75
2023/06/12 09:53:20;;;;;;;2.80;1.80;;;;;;;;;;6216759;28;20061;-75
2023/06/12 09:56:24;;;;;;;4.63;2.47;;;;;;;;;;6214243;28;20046;-75
2023/06/12 09:59:28;;;;;;;3.15;1.70;;;;;;;;;;6214341;28;20065;-76
2023/06/12 10:02:30;;;;;;;1.77;1.63;;;;;;;;;;6215354;28;20054;-76
2023/06/12 10:05:35;;;;;;;2.90;2.10;;;;;;;;;;6217321;28;20081;-76
2023/06/12 10:08:36;;;;;;;3.08;2.72;;;;;;;;;;6215766;28;20054;-76
2023/06/12 10:11:40;;;;;;;2.70;2.00;;;;;;;;;;6215377;28;20257;-77
2023/06/12 10:14:42;;;;;;;4.63;2.20;;;;;;;;;;6214341;28;20058;-78
2023/06/12 10:17:44;;;;;;;3.95;2.10;;;;;;;;;;6216733;28;20231;-77
2023/06/12 10:20:49;;;;;;;2.88;2.30;;;;;;;;;;6213291;28;20133;-78
2023/06/12 10:23:51;;;;;;;4.07;2.00;;;;;;;;;;6215476;28;20279;-78
2023/06/12 10:26:56;;;;;;;2.67;2.10;;;;;;;;;;6218195;28;20057;-77
2023/06/12 10:29:59;;;;;;;3.55;2.78;;;;;;;;;;6215734;28;20048;-78
2023/06/12 10:33:13;;;;;;;3.42;2.30;;;;;;;;;;6213792;28;20053;-79
2023/06/12 10:36:14;;;;;;;2.55;2.05;;;;;;;;;;6216331;28;20054;-80
2023/06/12 10:39:18;;;;;;;2.72;2.20;;;;;;;;;;6216254;28;20104;-77
2023/06/12 10:42:20;;;;;;;2.35;2.10;;;;;;;;;;6216618;28;20058;-79
2023/06/12 10:45:23;;;;;;;3.47;2.50;;;;;;;;;;6215885;28;20081;-79
2023/06/12 10:48:25;;;;;;;5.13;3.22;;;;;;;;;;6215103;28;20061;-77
2023/06/12 10:51:33;;;;;;;2.88;2.58;;;;;;;;;;6213724;28;20046;-79
2023/06/12 10:54:35;;;;;;;5.68;2.90;;;;;;;;;;6215659;28;20054;-78
2023/06/12 10:57:38;;;;;;;2.80;2.20;;;;;;;;;;6214452;28;20044;-80
2023/06/12 11:00:45;;;;;;;2.90;2.55;;;;;;;;;;6213129;28;20058;-80
2023/06/12 11:03:47;;;;;;;5.75;2.85;;;;;;;;;;6214107;28;20058;-80
2023/06/12 11:06:49;;;;;;;3.97;3.00;;;;;;;;;;6216228;28;20049;-80
2023/06/12 11:09:51;;;;;;;4.30;3.30;;;;;;;;;;6215198;28;20069;-79
2023/06/12 11:12:54;;;;;;;4.38;3.30;;;;;;;;;;6215622;28;20342;-81
2023/06/12 11:15:57;;;;;;;4.45;3.30;;;;;;;;;;6216234;28;20061;-80
2023/06/12 11:19:05;;;;;;;4.60;3.38;;;;;;;;;;6214503;28;20089;-79
2023/06/12 11:22:08;;;;;;;3.97;3.53;;;;;;;;;;6214412;28;20113;-80
2023/06/12 11:25:10;;;;;;;4.10;3.58;;;;;;;;;;6212541;28;20440;-78
2023/06/12 11:28:15;;;;;;;5.88;3.20;;;;;;;;;;6216696;28;20069;-79
2023/06/12 11:31:18;;;;;;;5.00;3.28;;;;;;;;;;6214874;28;20042;-80
2023/06/12 11:34:20;;;;;;;5.15;3.65;;;;;;;;;;6211587;28;20356;-80
2023/06/12 11:37:25;;;;;;;5.07;3.90;;;;;;;;;;6215142;28;20061;-82
2023/06/12 11:40:28;;;;;;;5.22;3.38;;;;;;;;;;6217078;28;20241;-81
2023/06/12 11:43:31;;;;;;;4.90;3.78;;;;;;;;;;6214399;28;20301;-81
2023/06/12 11:46:33;;;;;;;3.35;3.00;;;;;;;;;;6216382;28;20070;-80
2023/06/12 11:49:36;;;;;;;5.25;4.20;;;;;;;;;;6213732;28;20109;-80
2023/06/12 11:52:40;;;;;;;3.20;2.90;;;;;;;;;;6213572;28;20058;-81
2023/06/12 11:55:41;;;;;;;6.88;3.22;;;;;;;;;;6216278;28;20060;-80
2023/06/12 11:58:45;;;;;;;5.30;3.70;;;;;;;;;;6214779;28;20053;-82
2023/06/12 12:01:48;;;;;;;5.15;4.65;;;;;;;;;;6213866;28;20077;-80
2023/06/12 12:04:50;;;;;;;4.63;4.20;;;;;;;;;;6214257;28;20133;-81
2023/06/12 12:07:55;;;;;;;5.30;4.78;;;;;;;;;;6213503;28;20068;-81
2023/06/12 12:10:57;;;;;;;5.35;4.53;;;;;;;;;;6214863;28;20058;-82
2023/06/12 12:14:02;;;;;;;5.57;5.00;;;;;;;;;;6214391;28;20246;-80
2023/06/12 12:17:06;;;;;;;4.53;3.60;;;;;;;;;;6201545;28;20054;-82
2023/06/12 12:20:13;;;;;;;4.50;3.30;;;;;;;;;;6215957;28;20057;-81
2023/06/12 12:23:15;;;;;;;32.28;25.73;;;;;;;;;;6220121;28;20117;-80
2023/06/12 12:26:17;;;;;;;21.73;16.10;;;;;;;;;;6218941;28;20076;-82
2023/06/12 12:29:21;;;;;;;;;;;;;;;;;;6217660;28;20050;-82
2023/06/12 12:32:22;;;;;;;27.30;19.33;;;;;;;;;;6218476;28;19925;-82
2023/06/12 12:35:27;;;;;;;15.35;9.38;;;;;;;;;;6221498;28;20058;-81
2023/06/12 12:38:29;;;;;;;6.25;3.92;;;;;;;;;;6221181;28;20289;-82
2023/06/12 12:41:30;;;;;;;5.82;4.60;;;;;;;;;;6219711;28;20114;-81
2023/06/12 12:44:33;;;;;;;6.30;5.43;;;;;;;;;;6218883;28;20050;-80
2023/06/12 12:47:35;;;;;;;17.02;13.80;;;;;;;;;;6222306;28;20042;-80
2023/06/12 12:50:37;;;;;;;3.42;3.13;;;;;;;;;;6216484;28;20057;-80
2023/06/12 12:53:39;;;;;;;4.38;3.17;;;;;;;;;;6215356;28;20426;-80
2023/06/12 12:56:41;;;;;;;4.43;3.45;;;;;;;;;;6217456;28;20096;-81
2023/06/12 12:59:45;;;;;;;2.80;2.58;;;;;;;;;;6216260;28;20062;-79
2023/06/12 13:02:46;;;;;;;3.38;2.60;;;;;;;;;;6218783;28;20054;-80
2023/06/12 13:05:48;;;;;;;;;;;;;;;;;;6218598;28;20058;-80
2023/06/12 13:08:50;;;;;;;2.30;2.10;;;;;;;;;;6208473;28;19936;-81
2023/06/12 13:11:51;;;;;;;;;;;;;;;;;;6218773;28;20334;-80
2023/06/12 13:14:54;;;;;;;2.65;2.45;;;;;;;;;;6216863;28;20256;-79
2023/06/12 13:17:57;;;;;;;4.32;2.47;;;;;;;;;;6220364;28;20080;-79
2023/06/12 13:20:59;;;;;;;3.05;2.08;;;;;;;;;;6214207;28;20157;-80
2023/06/12 13:24:01;;;;;;;;;;;;;;;;;;6217497;28;20356;-81
2023/06/12 13:27:02;;;;;;;2.40;2.20;;;;;;;;;;6217878;28;20008;-80
2023/06/12 13:30:07;;;;;;;2.58;2.35;;;;;;;;;;6216747;28;20339;-84
2023/06/12 13:33:09;;;;;;;4.13;2.50;;;;;;;;;;6215424;28;20042;-79
2023/06/12 13:36:11;;;;;;;3.25;2.42;;;;;;;;;;6218989;28;20089;-82
2023/06/12 13:39:13;;;;;;;3.03;2.70;;;;;;;;;;6217863;28;20046;-80
2023/06/12 13:42:15;;;;;;;4.10;2.50;;;;;;;;;;6216903;28;20057;-80
2023/06/12 13:45:19;;;;;;;2.63;2.35;;;;;;;;;;6216372;28;20054;-79
2023/06/12 13:48:21;;;;;;;2.95;2.28;;;;;;;;;;6217466;28;20137;-79
2023/06/12 13:51:23;;;;;;;2.70;2.50;;;;;;;;;;6215716;28;20074;-79
2023/06/12 13:54:24;;;;;;;3.03;2.58;;;;;;;;;;6214251;28;20058;-80
2023/06/12 13:57:26;;;;;;;;;;;;;;;;;;6217506;28;20338;-79
2023/06/12 14:00:29;;;;;;;2.75;2.20;;;;;;;;;;6215916;28;19933;-79
2023/06/12 14:03:31;;;;;;;3.20;2.90;;;;;;;;;;6215465;28;20058;-79
2023/06/12 14:06:32;;;;;;;3.92;2.40;;;;;;;;;;6216639;28;20061;-79
2023/06/12 14:09:34;;;;;;;5.50;2.78;;;;;;;;;;6215278;28;20046;-79
2023/06/12 14:12:36;;;;;;;4.38;3.17;;;;;;;;;;6213714;28;20212;-79
2023/06/12 14:15:40;;;;;;;2.88;2.40;;;;;;;;;;6214972;28;20133;-79
2023/06/12 14:18:42;;;;;;;3.08;2.78;;;;;;;;;;6217704;28;20046;-79
2023/06/12 14:21:44;;;;;;;2.75;2.30;;;;;;;;;;6214433;28;20245;-78
2023/06/12 14:24:45;;;;;;;92.03;66.38;;;;;;;;;;6215089;28;20105;-80
2023/06/12 14:27:47;;;;;;;24.20;19.98;;;;;;;;;;6217385;28;20068;-79
2023/06/12 14:30:50;;;;;;;3.30;3.00;;;;;;;;;;6215378;28;20049;-79
2023/06/12 14:33:52;;;;;;;5.57;2.80;;;;;;;;;;6214367;28;20488;-81
2023/06/12 14:36:54;;;;;;;3.20;2.90;;;;;;;;;;6219086;28;20057;-79
2023/06/12 14:39:56;;;;;;;4.13;2.90;;;;;;;;;;6215636;28;21139;-79
2023/06/12 14:43:00;;;;;;;3.10;2.40;;;;;;;;;;6202556;28;20046;-79
2023/06/12 14:46:03;;;;;;;3.80;2.60;;;;;;;;;;6213096;28;20065;-78
2023/06/12 14:49:05;;;;;;;5.00;2.53;;;;;;;;;;6213738;28;20061;-78
2023/06/12 14:52:07;;;;;;;5.27;2.80;;;;;;;;;;6215521;28;20226;-79
2023/06/12 14:55:12;;;;;;;4.65;3.83;;;;;;;;;;6211536;28;20062;-79
2023/06/12 14:58:15;;;;;;;3.88;2.60;;;;;;;;;;6216379;28;20054;-78
2023/06/12 15:01:20;;;;;;;2.90;2.60;;;;;;;;;;6215095;28;20038;-78
2023/06/12 15:04:24;;;;;;;4.65;2.60;;;;;;;;;;6216148;28;20098;-78
2023/06/12 15:07:27;;;;;;;2.80;2.40;;;;;;;;;;6216145;28;20241;-78
2023/06/12 15:10:29;;;;;;;2.60;2.05;;;;;;;;;;6201519;28;20126;-78
2023/06/12 15:13:32;;;;;;;7.90;2.50;;;;;;;;;;6214359;28;20253;-78
2023/06/12 15:16:35;;;;;;;2.60;2.40;;;;;;;;;;6215785;28;20474;-78
2023/06/12 15:19:36;;;;;;;2.78;2.33;;;;;;;;;;6215730;28;20100;-79
2023/06/12 15:22:38;;;;;;;2.95;2.45;;;;;;;;;;6213647;28;20119;-79
2023/06/12 15:25:40;;;;;;;3.85;2.55;;;;;;;;;;6214192;28;20057;-78
2023/06/12 15:28:42;;;;;;;2.50;2.20;;;;;;;;;;6213621;28;20233;-78
2023/06/12 15:31:48;;;;;;;5.28;2.30;;;;;;;;;;6214476;28;20054;-80
2023/06/12 15:34:50;;;;;;;3.28;2.78;;;;;;;;;;6214450;28;20076;-78
2023/06/12 15:37:52;;;;;;;3.55;3.10;;;;;;;;;;6215979;28;20049;-80
2023/06/12 15:40:53;;;;;;;3.33;2.45;;;;;;;;;;6214628;28;20057;-80
2023/06/12 15:43:55;;;;;;;4.13;3.53;;;;;;;;;;6214123;28;20216;-81
2023/06/12 15:46:58;;;;;;;48.30;32.30;;;;;;;;;;6220040;28;20054;-82
2023/06/12 15:50:00;;;;;;;42.58;28.35;;;;;;;;;;6215449;28;20046;-82
2023/06/12 15:53:02;;;;;;;27.08;19.70;;;;;;;;;;6211599;28;20067;-80
2023/06/12 15:56:04;;;;;;;4.40;3.88;;;;;;;;;;6215824;28;20101;-80
2023/06/12 15:59:14;;;;;;;4.90;3.00;;;;;;;;;;6215692;28;20069;-79
2023/06/12 16:02:18;;;;;;;4.78;2.80;;;;;;;;;;6217517;28;20060;-80
2023/06/12 16:05:19;;;;;;;4.00;3.05;;;;;;;;;;6219209;28;20070;-80
2023/06/12 16:08:21;;;;;;;4.28;3.70;;;;;;;;;;6211202;28;20065;-79
2023/06/12 16:11:22;;;;;;;5.05;3.45;;;;;;;;;;6216923;28;20057;-80
2023/06/12 16:14:24;;;;;;;6.30;3.17;;;;;;;;;;6219319;28;20062;-80
2023/06/12 16:17:27;;;;;;;3.42;3.03;;;;;;;;;;6219914;28;20326;-80
2023/06/12 16:20:29;;;;;;;3.42;2.97;;;;;;;;;;6205489;28;20118;-79
2023/06/12 16:23:35;;;;;;;5.75;3.50;;;;;;;;;;6217452;28;20069;-79
2023/06/12 16:26:38;;;;;;;3.58;3.00;;;;;;;;;;6218011;28;20349;-80
2023/06/12 16:29:39;;;;;;;7.50;3.43;;;;;;;;;;6219696;28;20345;-80
2023/06/12 16:32:42;;;;;;;3.78;2.80;;;;;;;;;;6215406;28;20464;-78
2023/06/12 16:35:44;;;;;;;;;;;;;;;;;;6218861;28;20062;-79
2023/06/12 16:38:46;;;;;;;2.78;2.38;;;;;;;;;;6217434;28;19941;-80
2023/06/12 16:41:47;;;;;;;3.55;2.15;;;;;;;;;;6218267;28;20113;-78
2023/06/12 16:44:49;;;;;;;3.35;2.58;;;;;;;;;;6217443;28;20054;-79
2023/06/12 16:47:53;;;;;;;4.53;2.10;;;;;;;;;;6221270;28;20244;-79
2023/06/12 16:50:55;;;;;;;2.88;2.05;;;;;;;;;;6216846;28;20054;-79
2023/06/12 16:53:56;;;;;;;2.20;1.95;;;;;;;;;;6218325;28;20050;-79
2023/06/12 16:56:59;;;;;;;7.10;2.50;;;;;;;;;;6216624;28;20108;-79
2023/06/12 17:00:01;;;;;;;4.22;2.53;;;;;;;;;;6218123;28;20101;-80
2023/06/12 17:03:04;;;;;;;2.72;2.20;;;;;;;;;;6215258;28;20109;-80
2023/06/12 17:06:06;;;;;;;3.47;2.88;;;;;;;;;;6216579;28;20053;-79
2023/06/12 17:09:08;;;;;;;1.92;1.73;;;;;;;;;;6215926;28;20061;-79
2023/06/12 17:12:11;;;;;;;4.30;2.55;;;;;;;;;;6216821;28;20107;-80
2023/06/12 17:15:12;;;;;;;2.97;2.40;;;;;;;;;;6217640;28;20104;-79
2023/06/12 17:18:16;;;;;;;4.80;2.50;;;;;;;;;;6219823;28;20138;-79
2023/06/12 17:21:18;;;;;;;6.30;3.10;;;;;;;;;;6216336;28;20219;-79
2023/06/12 17:24:19;;;;;;;4.15;2.92;;;;;;;;;;6213548;28;20207;-80
2023/06/12 17:27:21;;;;;;;3.70;3.22;;;;;;;;;;6219828;28;20050;-79
2023/06/12 17:30:23;;;;;;;5.93;3.10;;;;;;;;;;6200571;28;20071;-79
2023/06/12 17:33:26;;;;;;;4.68;3.88;;;;;;;;;;6189820;28;20326;-78
2023/06/12 17:36:27;;;;;;;;;;;;;;;;;;6191777;28;20341;-75
2023/06/12 17:39:29;;;;;;;3.70;3.20;;;;;;;;;;6193449;28;19929;-79
2023/06/12 17:42:31;;;;;;;4.00;3.60;;;;;;;;;;6193596;28;20586;-79
2023/06/12 17:45:33;;;;;;;3.92;3.20;;;;;;;;;;6188106;28;20250;-83
2023/06/12 17:48:36;;;;;;;5.72;3.10;;;;;;;;;;6193740;28;20388;-79
2023/06/12 17:51:37;;;;;;;;;;;;;;;;;;6193719;28;20227;-83
2023/06/12 17:54:42;;;;;;;3.33;2.88;;;;;;;;;;6191046;28;19933;-79
2023/06/12 17:57:44;;;;;;;5.45;2.45;;;;;;;;;;6206482;28;20129;-75
2023/06/12 18:00:46;;;;;;;3.85;2.78;;;;;;;;;;6214366;28;20058;-75
2023/06/12 18:03:49;;;;;;;4.53;2.90;;;;;;;;;;6214220;28;20064;-76
2023/06/12 18:06:51;;;;;;;5.93;3.33;;;;;;;;;;6213862;28;20053;-75
2023/06/12 18:09:53;;;;;;;3.75;2.60;;;;;;;;;;6215339;28;20370;-76
2023/06/12 18:12:55;;;;;;;5.82;2.75;;;;;;;;;;6215124;28;20057;-77
2023/06/12 18:16:04;;;;;;;5.15;2.38;;;;;;;;;;6214569;28;20281;-76
2023/06/12 18:19:11;;;;;;;2.97;2.50;;;;;;;;;;6214813;28;20207;-77